sensor_id;sensor_type;location;lat;lon;timestamp;P1;durP1;ratioP1;P2;durP2;ratioP2
45358;SDS011;31096;49.292;8.710;2023-05-20T00:04:33;6.22;;;2.92;;
45358;SDS011;31096;49.292;8.710;2023-05-20T00:09:24;5.93;;;2.97;;
45358;SDS011;31096;49.292;8.710;2023-05-20T00:14:15;5.38;;;3.47;;
45358;SDS011;31096;49.292;8.710;2023-05-20T00:19:06;5.60;;;2.70;;
45358;SDS011;31096;49.292;8.710;2023-05-20T00:23:56;6.53;;;3.20;;
45358;SDS011;31096;49.292;8.710;2023-05-20T00:28:47;5.80;;;2.88;;
45358;SDS011;31096;49.292;8.710;2023-05-20T00:33:38;6.03;;;3.00;;
45358;SDS011;31096;49.292;8.710;2023-05-20T00:38:29;5.40;;;3.10;;
45358;SDS011;31096;49.292;8.710;2023-05-20T00:43:19;5.10;;;3.00;;
45358;SDS011;31096;49.292;8.710;2023-05-20T00:48:11;4.50;;;2.75;;
45358;SDS011;31096;49.292;8.710;2023-05-20T00:53:02;6.23;;;2.70;;
45358;SDS011;31096;49.292;8.710;2023-05-20T00:57:53;4.90;;;2.60;;
45358;SDS011;31096;49.292;8.710;2023-05-20T01:02:44;4.67;;;2.63;;
45358;SDS011;31096;49.292;8.710;2023-05-20T01:07:35;7.77;;;2.70;;
45358;SDS011;31096;49.292;8.710;2023-05-20T01:12:39;6.20;;;2.67;;
45358;SDS011;31096;49.292;8.710;2023-05-20T01:17:39;4.80;;;2.72;;
45358;SDS011;31096;49.292;8.710;2023-05-20T01:22:35;4.53;;;2.85;;
45358;SDS011;31096;49.292;8.710;2023-05-20T01:27:27;7.17;;;3.23;;
45358;SDS011;31096;49.292;8.710;2023-05-20T01:32:21;5.90;;;3.30;;
45358;SDS011;31096;49.292;8.710;2023-05-20T01:37:21;6.93;;;3.10;;
45358;SDS011;31096;49.292;8.710;2023-05-20T01:42:12;6.35;;;3.13;;
45358;SDS011;31096;49.292;8.710;2023-05-20T01:47:05;7.33;;;3.07;;
45358;SDS011;31096;49.292;8.710;2023-05-20T01:51:55;7.68;;;3.60;;
45358;SDS011;31096;49.292;8.710;2023-05-20T01:56:48;4.60;;;2.80;;
45358;SDS011;31096;49.292;8.710;2023-05-20T02:01:39;6.35;;;3.00;;
45358;SDS011;31096;49.292;8.710;2023-05-20T02:06:30;5.70;;;3.33;;
45358;SDS011;31096;49.292;8.710;2023-05-20T02:11:20;5.40;;;3.20;;
45358;SDS011;31096;49.292;8.710;2023-05-20T02:16:11;5.10;;;2.87;;
45358;SDS011;31096;49.292;8.710;2023-05-20T02:21:03;5.45;;;2.78;;
45358;SDS011;31096;49.292;8.710;2023-05-20T02:25:54;5.85;;;3.38;;
45358;SDS011;31096;49.292;8.710;2023-05-20T02:30:45;6.60;;;3.23;;
45358;SDS011;31096;49.292;8.710;2023-05-20T02:35:36;5.23;;;2.93;;
45358;SDS011;31096;49.292;8.710;2023-05-20T02:40:26;4.95;;;3.00;;
45358;SDS011;31096;49.292;8.710;2023-05-20T02:45:17;5.47;;;2.80;;
45358;SDS011;31096;49.292;8.710;2023-05-20T02:50:08;5.65;;;3.42;;
45358;SDS011;31096;49.292;8.710;2023-05-20T02:54:59;5.77;;;3.53;;
45358;SDS011;31096;49.292;8.710;2023-05-20T02:59:50;6.22;;;3.70;;
45358;SDS011;31096;49.292;8.710;2023-05-20T03:04:41;6.10;;;3.37;;
45358;SDS011;31096;49.292;8.710;2023-05-20T03:09:32;5.50;;;3.00;;
45358;SDS011;31096;49.292;8.710;2023-05-20T03:14:22;5.17;;;3.00;;
45358;SDS011;31096;49.292;8.710;2023-05-20T03:19:13;7.20;;;3.47;;
45358;SDS011;31096;49.292;8.710;2023-05-20T03:24:05;5.20;;;3.07;;
45358;SDS011;31096;49.292;8.710;2023-05-20T03:28:56;7.00;;;3.13;;
45358;SDS011;31096;49.292;8.710;2023-05-20T03:33:46;5.37;;;3.10;;
45358;SDS011;31096;49.292;8.710;2023-05-20T03:38:37;5.40;;;3.20;;
45358;SDS011;31096;49.292;8.710;2023-05-20T03:43:28;5.40;;;3.57;;
45358;SDS011;31096;49.292;8.710;2023-05-20T03:48:18;7.03;;;3.23;;
45358;SDS011;31096;49.292;8.710;2023-05-20T03:53:09;6.45;;;3.85;;
45358;SDS011;31096;49.292;8.710;2023-05-20T03:58:00;6.17;;;3.87;;
45358;SDS011;31096;49.292;8.710;2023-05-20T04:02:51;5.50;;;3.90;;
45358;SDS011;31096;49.292;8.710;2023-05-20T04:07:42;7.07;;;3.80;;
45358;SDS011;31096;49.292;8.710;2023-05-20T04:12:32;5.90;;;3.85;;
45358;SDS011;31096;49.292;8.710;2023-05-20T04:17:25;7.70;;;3.93;;
45358;SDS011;31096;49.292;8.710;2023-05-20T04:22:19;5.72;;;3.67;;
45358;SDS011;31096;49.292;8.710;2023-05-20T04:27:09;5.47;;;3.53;;
45358;SDS011;31096;49.292;8.710;2023-05-20T04:32:00;5.43;;;3.55;;
45358;SDS011;31096;49.292;8.710;2023-05-20T04:36:52;6.30;;;3.47;;
45358;SDS011;31096;49.292;8.710;2023-05-20T04:41:43;5.93;;;3.67;;
45358;SDS011;31096;49.292;8.710;2023-05-20T04:46:33;5.27;;;3.20;;
45358;SDS011;31096;49.292;8.710;2023-05-20T04:51:24;5.60;;;3.90;;
45358;SDS011;31096;49.292;8.710;2023-05-20T04:56:15;5.20;;;3.08;;
45358;SDS011;31096;49.292;8.710;2023-05-20T05:01:05;6.07;;;3.67;;
45358;SDS011;31096;49.292;8.710;2023-05-20T05:05:56;5.43;;;3.90;;
45358;SDS011;31096;49.292;8.710;2023-05-20T05:10:48;6.03;;;3.58;;
45358;SDS011;31096;49.292;8.710;2023-05-20T05:15:38;5.43;;;3.27;;
45358;SDS011;31096;49.292;8.710;2023-05-20T05:20:29;5.35;;;3.38;;
45358;SDS011;31096;49.292;8.710;2023-05-20T05:25:20;6.13;;;3.60;;
45358;SDS011;31096;49.292;8.710;2023-05-20T05:30:10;5.43;;;3.30;;
45358;SDS011;31096;49.292;8.710;2023-05-20T05:35:01;5.88;;;3.70;;
45358;SDS011;31096;49.292;8.710;2023-05-20T05:39:52;5.70;;;3.83;;
45358;SDS011;31096;49.292;8.710;2023-05-20T05:44:43;5.35;;;3.53;;
45358;SDS011;31096;49.292;8.710;2023-05-20T05:49:33;5.30;;;4.00;;
45358;SDS011;31096;49.292;8.710;2023-05-20T05:54:24;5.27;;;3.63;;
45358;SDS011;31096;49.292;8.710;2023-05-20T05:59:15;5.28;;;3.92;;
45358;SDS011;31096;49.292;8.710;2023-05-20T06:04:06;6.43;;;4.20;;
45358;SDS011;31096;49.292;8.710;2023-05-20T06:08:56;5.15;;;4.00;;
45358;SDS011;31096;49.292;8.710;2023-05-20T06:13:47;13.10;;;4.00;;
45358;SDS011;31096;49.292;8.710;2023-05-20T06:18:38;8.50;;;4.07;;
45358;SDS011;31096;49.292;8.710;2023-05-20T06:23:28;5.40;;;3.90;;
45358;SDS011;31096;49.292;8.710;2023-05-20T06:28:19;5.40;;;3.75;;
45358;SDS011;31096;49.292;8.710;2023-05-20T06:33:10;4.90;;;3.50;;
45358;SDS011;31096;49.292;8.710;2023-05-20T06:38:01;5.88;;;4.03;;
45358;SDS011;31096;49.292;8.710;2023-05-20T06:42:51;5.93;;;3.80;;
45358;SDS011;31096;49.292;8.710;2023-05-20T06:47:43;5.30;;;3.78;;
45358;SDS011;31096;49.292;8.710;2023-05-20T06:52:34;5.87;;;4.10;;
45358;SDS011;31096;49.292;8.710;2023-05-20T06:57:24;5.88;;;3.72;;
45358;SDS011;31096;49.292;8.710;2023-05-20T07:02:15;6.10;;;4.37;;
45358;SDS011;31096;49.292;8.710;2023-05-20T07:07:06;7.13;;;4.22;;
45358;SDS011;31096;49.292;8.710;2023-05-20T07:11:57;6.07;;;4.00;;
45358;SDS011;31096;49.292;8.710;2023-05-20T07:16:47;6.43;;;4.37;;
45358;SDS011;31096;49.292;8.710;2023-05-20T07:21:38;6.20;;;4.57;;
45358;SDS011;31096;49.292;8.710;2023-05-20T07:26:30;5.70;;;4.30;;
45358;SDS011;31096;49.292;8.710;2023-05-20T07:31:22;6.40;;;4.32;;
45358;SDS011;31096;49.292;8.710;2023-05-20T07:36:13;6.77;;;4.57;;
45358;SDS011;31096;49.292;8.710;2023-05-20T07:41:04;6.55;;;4.85;;
45358;SDS011;31096;49.292;8.710;2023-05-20T07:45:55;6.30;;;4.80;;
45358;SDS011;31096;49.292;8.710;2023-05-20T07:50:46;5.75;;;4.18;;
45358;SDS011;31096;49.292;8.710;2023-05-20T07:55:37;6.63;;;4.47;;
45358;SDS011;31096;49.292;8.710;2023-05-20T08:00:28;6.43;;;4.72;;
45358;SDS011;31096;49.292;8.710;2023-05-20T08:05:18;6.47;;;4.50;;
45358;SDS011;31096;49.292;8.710;2023-05-20T08:10:11;7.28;;;4.65;;
45358;SDS011;31096;49.292;8.710;2023-05-20T08:15:02;6.57;;;3.93;;
45358;SDS011;31096;49.292;8.710;2023-05-20T08:19:57;5.80;;;4.20;;
45358;SDS011;31096;49.292;8.710;2023-05-20T08:24:47;5.80;;;3.90;;
45358;SDS011;31096;49.292;8.710;2023-05-20T08:29:38;6.50;;;4.23;;
45358;SDS011;31096;49.292;8.710;2023-05-20T08:34:30;6.15;;;4.50;;
45358;SDS011;31096;49.292;8.710;2023-05-20T08:39:21;8.40;;;4.20;;
45358;SDS011;31096;49.292;8.710;2023-05-20T08:44:11;5.50;;;3.87;;
45358;SDS011;31096;49.292;8.710;2023-05-20T08:49:02;6.45;;;4.47;;
45358;SDS011;31096;49.292;8.710;2023-05-20T08:53:53;7.00;;;4.43;;
45358;SDS011;31096;49.292;8.710;2023-05-20T08:58:44;6.45;;;4.43;;
45358;SDS011;31096;49.292;8.710;2023-05-20T09:03:35;5.60;;;4.30;;
45358;SDS011;31096;49.292;8.710;2023-05-20T09:08:26;6.18;;;4.55;;
45358;SDS011;31096;49.292;8.710;2023-05-20T09:13:17;5.60;;;4.27;;
45358;SDS011;31096;49.292;8.710;2023-05-20T09:18:08;8.73;;;4.32;;
45358;SDS011;31096;49.292;8.710;2023-05-20T09:22:59;8.73;;;5.10;;
45358;SDS011;31096;49.292;8.710;2023-05-20T09:27:52;5.65;;;4.28;;
45358;SDS011;31096;49.292;8.710;2023-05-20T09:32:43;6.00;;;4.50;;
45358;SDS011;31096;49.292;8.710;2023-05-20T09:37:34;18.02;;;4.55;;
45358;SDS011;31096;49.292;8.710;2023-05-20T09:42:27;8.90;;;5.30;;
45358;SDS011;31096;49.292;8.710;2023-05-20T09:47:30;9.87;;;4.70;;
45358;SDS011;31096;49.292;8.710;2023-05-20T09:52:21;6.17;;;4.40;;
45358;SDS011;31096;49.292;8.710;2023-05-20T09:57:13;6.97;;;4.80;;
45358;SDS011;31096;49.292;8.710;2023-05-20T10:02:04;7.10;;;4.83;;
45358;SDS011;31096;49.292;8.710;2023-05-20T10:12:37;6.88;;;5.50;;
45358;SDS011;31096;49.292;8.710;2023-05-20T10:23:18;6.37;;;4.73;;
45358;SDS011;31096;49.292;8.710;2023-05-20T10:28:11;5.95;;;4.57;;
45358;SDS011;31096;49.292;8.710;2023-05-20T10:33:02;6.30;;;4.73;;
45358;SDS011;31096;49.292;8.710;2023-05-20T10:38:06;5.80;;;4.43;;
45358;SDS011;31096;49.292;8.710;2023-05-20T10:43:08;5.70;;;4.68;;
45358;SDS011;31096;49.292;8.710;2023-05-20T10:48:23;7.10;;;4.63;;
45358;SDS011;31096;49.292;8.710;2023-05-20T10:53:16;6.30;;;4.73;;
45358;SDS011;31096;49.292;8.710;2023-05-20T10:58:08;5.47;;;4.20;;
45358;SDS011;31096;49.292;8.710;2023-05-20T11:02:59;8.23;;;4.57;;
45358;SDS011;31096;49.292;8.710;2023-05-20T11:07:59;6.18;;;4.55;;
45358;SDS011;31096;49.292;8.710;2023-05-20T11:12:59;7.00;;;4.40;;
45358;SDS011;31096;49.292;8.710;2023-05-20T11:17:53;8.23;;;4.97;;
45358;SDS011;31096;49.292;8.710;2023-05-20T11:22:44;6.88;;;4.82;;
45358;SDS011;31096;49.292;8.710;2023-05-20T11:27:37;6.45;;;4.72;;
45358;SDS011;31096;49.292;8.710;2023-05-20T11:32:28;5.70;;;4.70;;
45358;SDS011;31096;49.292;8.710;2023-05-20T11:37:19;9.00;;;5.07;;
45358;SDS011;31096;49.292;8.710;2023-05-20T11:42:10;6.13;;;4.60;;
45358;SDS011;31096;49.292;8.710;2023-05-20T11:47:04;6.60;;;4.63;;
45358;SDS011;31096;49.292;8.710;2023-05-20T11:51:55;5.75;;;4.63;;
45358;SDS011;31096;49.292;8.710;2023-05-20T11:56:46;6.17;;;4.47;;
45358;SDS011;31096;49.292;8.710;2023-05-20T12:01:38;6.88;;;4.43;;
45358;SDS011;31096;49.292;8.710;2023-05-20T12:06:32;5.30;;;4.33;;
45358;SDS011;31096;49.292;8.710;2023-05-20T12:11:23;5.63;;;4.60;;
45358;SDS011;31096;49.292;8.710;2023-05-20T12:16:14;6.27;;;4.63;;
45358;SDS011;31096;49.292;8.710;2023-05-20T12:21:04;6.10;;;4.65;;
45358;SDS011;31096;49.292;8.710;2023-05-20T12:25:55;7.73;;;5.13;;
45358;SDS011;31096;49.292;8.710;2023-05-20T12:30:47;7.38;;;4.65;;
45358;SDS011;31096;49.292;8.710;2023-05-20T12:35:38;6.40;;;5.20;;
45358;SDS011;31096;49.292;8.710;2023-05-20T12:40:31;7.55;;;4.75;;
45358;SDS011;31096;49.292;8.710;2023-05-20T12:45:22;6.25;;;4.85;;
45358;SDS011;31096;49.292;8.710;2023-05-20T12:50:13;6.53;;;5.13;;
45358;SDS011;31096;49.292;8.710;2023-05-20T12:55:04;6.85;;;5.18;;
45358;SDS011;31096;49.292;8.710;2023-05-20T13:00:02;5.70;;;4.80;;
45358;SDS011;31096;49.292;8.710;2023-05-20T13:04:55;6.40;;;4.90;;
45358;SDS011;31096;49.292;8.710;2023-05-20T13:09:46;6.63;;;4.93;;
45358;SDS011;31096;49.292;8.710;2023-05-20T13:14:36;7.13;;;4.60;;
45358;SDS011;31096;49.292;8.710;2023-05-20T13:19:27;5.70;;;4.53;;
45358;SDS011;31096;49.292;8.710;2023-05-20T13:24:18;6.20;;;5.00;;
45358;SDS011;31096;49.292;8.710;2023-05-20T13:29:09;5.97;;;4.57;;
45358;SDS011;31096;49.292;8.710;2023-05-20T13:34:01;6.50;;;4.57;;
45358;SDS011;31096;49.292;8.710;2023-05-20T13:38:53;5.80;;;4.80;;
45358;SDS011;31096;49.292;8.710;2023-05-20T13:43:43;6.93;;;4.77;;
45358;SDS011;31096;49.292;8.710;2023-05-20T13:48:34;6.20;;;4.90;;
45358;SDS011;31096;49.292;8.710;2023-05-20T13:53:25;6.10;;;5.00;;
45358;SDS011;31096;49.292;8.710;2023-05-20T13:58:15;6.05;;;4.75;;
45358;SDS011;31096;49.292;8.710;2023-05-20T14:03:06;6.70;;;4.27;;
45358;SDS011;31096;49.292;8.710;2023-05-20T14:07:59;7.07;;;5.15;;
45358;SDS011;31096;49.292;8.710;2023-05-20T14:12:51;8.70;;;5.10;;
45358;SDS011;31096;49.292;8.710;2023-05-20T14:17:42;6.63;;;4.90;;
45358;SDS011;31096;49.292;8.710;2023-05-20T14:22:32;5.80;;;4.63;;
45358;SDS011;31096;49.292;8.710;2023-05-20T14:27:23;7.10;;;4.68;;
45358;SDS011;31096;49.292;8.710;2023-05-20T14:32:14;6.67;;;5.20;;
45358;SDS011;31096;49.292;8.710;2023-05-20T14:37:07;7.40;;;5.50;;
45358;SDS011;31096;49.292;8.710;2023-05-20T14:41:58;5.95;;;4.78;;
45358;SDS011;31096;49.292;8.710;2023-05-20T14:46:49;6.97;;;4.77;;
45358;SDS011;31096;49.292;8.710;2023-05-20T14:51:40;7.90;;;4.90;;
45358;SDS011;31096;49.292;8.710;2023-05-20T14:56:31;7.85;;;6.00;;
45358;SDS011;31096;49.292;8.710;2023-05-20T15:01:22;6.23;;;5.00;;
45358;SDS011;31096;49.292;8.710;2023-05-20T15:06:12;6.63;;;4.70;;
45358;SDS011;31096;49.292;8.710;2023-05-20T15:11:03;7.70;;;5.30;;
45358;SDS011;31096;49.292;8.710;2023-05-20T15:15:54;7.68;;;5.22;;
45358;SDS011;31096;49.292;8.710;2023-05-20T15:20:45;6.80;;;5.50;;
45358;SDS011;31096;49.292;8.710;2023-05-20T15:25:36;6.88;;;5.28;;
45358;SDS011;31096;49.292;8.710;2023-05-20T15:30:26;7.10;;;5.67;;
45358;SDS011;31096;49.292;8.710;2023-05-20T15:35:17;6.70;;;5.03;;
45358;SDS011;31096;49.292;8.710;2023-05-20T15:40:08;6.65;;;5.18;;
45358;SDS011;31096;49.292;8.710;2023-05-20T15:45:00;7.63;;;6.00;;
45358;SDS011;31096;49.292;8.710;2023-05-20T15:49:51;7.20;;;5.57;;
45358;SDS011;31096;49.292;8.710;2023-05-20T15:54:43;9.15;;;6.35;;
45358;SDS011;31096;49.292;8.710;2023-05-20T15:59:34;6.73;;;5.07;;
45358;SDS011;31096;49.292;8.710;2023-05-20T16:04:25;6.93;;;5.17;;
45358;SDS011;31096;49.292;8.710;2023-05-20T16:09:15;7.63;;;5.53;;
45358;SDS011;31096;49.292;8.710;2023-05-20T16:14:06;8.40;;;6.07;;
45358;SDS011;31096;49.292;8.710;2023-05-20T16:18:57;8.70;;;6.43;;
45358;SDS011;31096;49.292;8.710;2023-05-20T16:23:48;6.77;;;5.43;;
45358;SDS011;31096;49.292;8.710;2023-05-20T16:28:39;7.65;;;5.72;;
45358;SDS011;31096;49.292;8.710;2023-05-20T16:33:30;6.90;;;5.57;;
45358;SDS011;31096;49.292;8.710;2023-05-20T16:38:21;7.82;;;5.75;;
45358;SDS011;31096;49.292;8.710;2023-05-20T16:43:11;6.83;;;5.53;;
45358;SDS011;31096;49.292;8.710;2023-05-20T16:48:02;8.57;;;5.97;;
45358;SDS011;31096;49.292;8.710;2023-05-20T16:52:53;7.40;;;5.80;;
45358;SDS011;31096;49.292;8.710;2023-05-20T16:57:45;7.07;;;5.43;;
45358;SDS011;31096;49.292;8.710;2023-05-20T17:02:36;7.00;;;5.57;;
45358;SDS011;31096;49.292;8.710;2023-05-20T17:07:27;6.93;;;5.23;;
45358;SDS011;31096;49.292;8.710;2023-05-20T17:12:18;8.00;;;5.10;;
45358;SDS011;31096;49.292;8.710;2023-05-20T17:17:08;9.13;;;5.70;;
45358;SDS011;31096;49.292;8.710;2023-05-20T17:21:59;6.90;;;5.27;;
45358;SDS011;31096;49.292;8.710;2023-05-20T17:26:50;8.07;;;5.10;;
45358;SDS011;31096;49.292;8.710;2023-05-20T17:31:40;7.93;;;5.77;;
45358;SDS011;31096;49.292;8.710;2023-05-20T17:36:32;9.02;;;5.28;;
45358;SDS011;31096;49.292;8.710;2023-05-20T17:41:23;6.97;;;5.37;;
45358;SDS011;31096;49.292;8.710;2023-05-20T17:46:15;8.68;;;5.75;;
45358;SDS011;31096;49.292;8.710;2023-05-20T17:51:08;6.53;;;5.03;;
45358;SDS011;31096;49.292;8.710;2023-05-20T17:55:59;8.13;;;5.93;;
45358;SDS011;31096;49.292;8.710;2023-05-20T18:00:50;7.53;;;5.50;;
45358;SDS011;31096;49.292;8.710;2023-05-20T18:05:41;9.02;;;5.30;;
45358;SDS011;31096;49.292;8.710;2023-05-20T18:10:32;8.32;;;6.07;;
45358;SDS011;31096;49.292;8.710;2023-05-20T18:15:23;11.93;;;6.90;;
45358;SDS011;31096;49.292;8.710;2023-05-20T18:20:14;9.98;;;7.32;;
45358;SDS011;31096;49.292;8.710;2023-05-20T18:25:05;11.50;;;8.00;;
45358;SDS011;31096;49.292;8.710;2023-05-20T18:29:56;11.60;;;8.27;;
45358;SDS011;31096;49.292;8.710;2023-05-20T18:34:47;12.70;;;8.07;;
45358;SDS011;31096;49.292;8.710;2023-05-20T18:39:38;12.50;;;8.40;;
45358;SDS011;31096;49.292;8.710;2023-05-20T18:44:28;14.10;;;9.83;;
45358;SDS011;31096;49.292;8.710;2023-05-20T18:49:19;13.50;;;8.77;;
45358;SDS011;31096;49.292;8.710;2023-05-20T18:54:12;13.43;;;8.25;;
45358;SDS011;31096;49.292;8.710;2023-05-20T18:59:02;12.37;;;9.47;;
45358;SDS011;31096;49.292;8.710;2023-05-20T19:03:53;12.83;;;8.80;;
45358;SDS011;31096;49.292;8.710;2023-05-20T19:08:44;12.70;;;8.07;;
45358;SDS011;31096;49.292;8.710;2023-05-20T19:13:35;11.77;;;8.98;;
45358;SDS011;31096;49.292;8.710;2023-05-20T19:18:26;11.80;;;8.90;;
45358;SDS011;31096;49.292;8.710;2023-05-20T19:23:19;14.23;;;8.68;;
45358;SDS011;31096;49.292;8.710;2023-05-20T19:28:10;12.20;;;9.00;;
45358;SDS011;31096;49.292;8.710;2023-05-20T19:33:02;13.70;;;8.82;;
45358;SDS011;31096;49.292;8.710;2023-05-20T19:37:54;12.35;;;8.80;;
45358;SDS011;31096;49.292;8.710;2023-05-20T19:42:45;12.33;;;9.10;;
45358;SDS011;31096;49.292;8.710;2023-05-20T19:47:35;13.80;;;9.20;;
45358;SDS011;31096;49.292;8.710;2023-05-20T19:52:26;14.20;;;9.20;;
45358;SDS011;31096;49.292;8.710;2023-05-20T19:57:17;11.33;;;8.97;;
45358;SDS011;31096;49.292;8.710;2023-05-20T20:02:08;12.00;;;8.35;;
45358;SDS011;31096;49.292;8.710;2023-05-20T20:06:59;13.23;;;8.77;;
45358;SDS011;31096;49.292;8.710;2023-05-20T20:11:50;12.93;;;9.45;;
45358;SDS011;31096;49.292;8.710;2023-05-20T20:16:41;10.87;;;8.53;;
45358;SDS011;31096;49.292;8.710;2023-05-20T20:21:37;10.43;;;7.28;;
45358;SDS011;31096;49.292;8.710;2023-05-20T20:26:29;11.02;;;8.20;;
45358;SDS011;31096;49.292;8.710;2023-05-20T20:31:20;10.17;;;7.60;;
45358;SDS011;31096;49.292;8.710;2023-05-20T20:36:10;10.83;;;7.13;;
45358;SDS011;31096;49.292;8.710;2023-05-20T20:41:01;10.63;;;7.38;;
45358;SDS011;31096;49.292;8.710;2023-05-20T20:45:52;11.00;;;7.60;;
45358;SDS011;31096;49.292;8.710;2023-05-20T20:50:45;12.17;;;7.83;;
45358;SDS011;31096;49.292;8.710;2023-05-20T20:55:36;12.65;;;9.38;;
45358;SDS011;31096;49.292;8.710;2023-05-20T21:00:27;11.57;;;8.83;;
45358;SDS011;31096;49.292;8.710;2023-05-20T21:05:18;13.95;;;8.75;;
45358;SDS011;31096;49.292;8.710;2023-05-20T21:10:10;10.55;;;8.18;;
45358;SDS011;31096;49.292;8.710;2023-05-20T21:15:01;13.50;;;9.63;;
45358;SDS011;31096;49.292;8.710;2023-05-20T21:19:52;13.35;;;8.48;;
45358;SDS011;31096;49.292;8.710;2023-05-20T21:24:45;11.75;;;9.23;;
45358;SDS011;31096;49.292;8.710;2023-05-20T21:29:36;11.77;;;8.93;;
45358;SDS011;31096;49.292;8.710;2023-05-20T21:34:27;12.23;;;8.63;;
45358;SDS011;31096;49.292;8.710;2023-05-20T21:39:18;13.03;;;9.37;;
45358;SDS011;31096;49.292;8.710;2023-05-20T21:44:08;11.27;;;8.60;;
45358;SDS011;31096;49.292;8.710;2023-05-20T21:48:59;13.15;;;9.35;;
45358;SDS011;31096;49.292;8.710;2023-05-20T21:53:50;11.27;;;8.40;;
45358;SDS011;31096;49.292;8.710;2023-05-20T21:58:40;9.87;;;7.43;;
45358;SDS011;31096;49.292;8.710;2023-05-20T22:03:32;12.80;;;8.85;;
45358;SDS011;31096;49.292;8.710;2023-05-20T22:08:24;12.27;;;8.50;;
45358;SDS011;31096;49.292;8.710;2023-05-20T22:13:17;12.77;;;8.10;;
45358;SDS011;31096;49.292;8.710;2023-05-20T22:18:09;10.90;;;7.70;;
45358;SDS011;31096;49.292;8.710;2023-05-20T22:23:03;11.68;;;8.20;;
45358;SDS011;31096;49.292;8.710;2023-05-20T22:27:54;14.03;;;8.13;;
45358;SDS011;31096;49.292;8.710;2023-05-20T22:32:44;12.10;;;8.50;;
45358;SDS011;31096;49.292;8.710;2023-05-20T22:37:35;12.85;;;8.38;;
45358;SDS011;31096;49.292;8.710;2023-05-20T22:42:26;11.70;;;8.37;;
45358;SDS011;31096;49.292;8.710;2023-05-20T22:47:16;12.47;;;8.20;;
45358;SDS011;31096;49.292;8.710;2023-05-20T22:52:07;11.10;;;8.20;;
45358;SDS011;31096;49.292;8.710;2023-05-20T22:56:58;15.33;;;8.53;;
45358;SDS011;31096;49.292;8.710;2023-05-20T23:01:49;11.90;;;8.93;;
45358;SDS011;31096;49.292;8.710;2023-05-20T23:06:40;13.50;;;8.20;;
45358;SDS011;31096;49.292;8.710;2023-05-20T23:11:30;12.63;;;9.03;;
45358;SDS011;31096;49.292;8.710;2023-05-20T23:16:21;12.73;;;8.80;;
45358;SDS011;31096;49.292;8.710;2023-05-20T23:21:15;13.97;;;8.23;;
45358;SDS011;31096;49.292;8.710;2023-05-20T23:26:05;14.52;;;9.25;;
45358;SDS011;31096;49.292;8.710;2023-05-20T23:30:56;12.93;;;8.77;;
45358;SDS011;31096;49.292;8.710;2023-05-20T23:35:47;10.40;;;7.38;;
45358;SDS011;31096;49.292;8.710;2023-05-20T23:40:38;10.70;;;7.83;;
45358;SDS011;31096;49.292;8.710;2023-05-20T23:45:28;11.67;;;7.37;;
45358;SDS011;31096;49.292;8.710;2023-05-20T23:50:19;11.50;;;8.35;;
45358;SDS011;31096;49.292;8.710;2023-05-20T23:55:10;12.23;;;8.93;;
